KMWO/MWO METAR and TAF weather

Enter ICAO airport designator
Station Type Date Time Source
KMWO METAR 2019/05/27 09:15 UTC NOAA

KMWO 270915Z AUTO 00000KT 10SM OVC080 17/17 A3005 RMK AO2 T01680165


Station Type Date Time Source
KMWO Decoded METAR 2019/05/27 09:15 UTC NOAA

Station name not available
May 27, 2019 - 05:15 AM EDT / 2019.05.27 0915 UTC
Wind: Calm:0
Visibility: 10 mile(s):0
Sky conditions: overcast
Temperature: 62.2 F (16.8 C)
Dew Point: 61.7 F (16.5 C)
Relative Humidity: 98%
Pressure (altimeter): 30.05 in. Hg (1017 hPa)
ob: KMWO 270915Z AUTO 00000KT 10SM OVC080 17/17 A3005 RMK AO2 T01680165
cycle: 9

Station Type Date Time Source
KMWO TAF UTC NOAA

Error!

Example: see airport list